createdAt,value
2017-01-12T00:00:15.414Z,0
2017-01-12T00:01:15.508Z,0
2017-01-12T00:02:15.463Z,0
2017-01-12T00:03:15.330Z,0
2017-01-12T00:04:15.729Z,0
2017-01-12T00:05:15.482Z,0
2017-01-12T00:06:15.817Z,0
2017-01-12T00:07:15.499Z,0
2017-01-12T00:08:15.549Z,0
2017-01-12T00:09:15.415Z,0
2017-01-12T00:10:15.556Z,0
2017-01-12T00:11:15.456Z,0
2017-01-12T00:12:25.265Z,0
2017-01-12T00:13:15.424Z,0
2017-01-12T00:14:15.402Z,0
2017-01-12T00:15:15.300Z,0
2017-01-12T00:16:15.573Z,0
2017-01-12T00:17:15.569Z,0
2017-01-12T00:18:15.455Z,0
2017-01-12T00:19:15.402Z,0
2017-01-12T00:20:15.412Z,0
2017-01-12T00:21:15.505Z,0
2017-01-12T00:22:15.503Z,0
2017-01-12T00:23:15.388Z,0
2017-01-12T00:24:15.547Z,0
2017-01-12T00:25:15.537Z,0
2017-01-12T00:26:15.525Z,0
2017-01-12T00:27:15.598Z,0
2017-01-12T00:28:15.476Z,0
2017-01-12T00:29:15.391Z,0
2017-01-12T00:30:15.576Z,0
2017-01-12T00:31:15.671Z,0
2017-01-12T00:32:15.345Z,0
2017-01-12T00:33:15.373Z,0
2017-01-12T00:34:15.481Z,0
2017-01-12T00:35:15.405Z,0
2017-01-12T00:36:15.374Z,0
2017-01-12T00:37:15.297Z,0
2017-01-12T00:38:15.450Z,0
2017-01-12T00:39:15.276Z,0
2017-01-12T00:40:15.528Z,0
2017-01-12T00:41:15.539Z,0
2017-01-12T00:42:15.500Z,0
2017-01-12T00:43:15.286Z,0
2017-01-12T00:44:17.347Z,0
2017-01-12T00:45:15.286Z,0
2017-01-12T00:46:15.654Z,0
2017-01-12T00:47:15.347Z,0
2017-01-12T00:48:15.496Z,0
2017-01-12T00:49:15.473Z,0
2017-01-12T00:50:15.396Z,0
2017-01-12T00:51:15.376Z,0
2017-01-12T00:52:15.366Z,0
2017-01-12T00:53:15.443Z,0
2017-01-12T00:54:15.458Z,0
2017-01-12T00:55:15.337Z,0
2017-01-12T00:56:15.565Z,0
2017-01-12T00:57:15.564Z,0
2017-01-12T00:58:15.283Z,0
2017-01-12T00:59:15.418Z,0
2017-01-12T01:00:15.524Z,0
2017-01-12T01:01:15.371Z,0
2017-01-12T01:02:15.337Z,0
2017-01-12T01:03:15.312Z,0
2017-01-12T01:04:15.539Z,0
2017-01-12T01:05:15.411Z,0
2017-01-12T01:06:15.476Z,0
2017-01-12T01:07:15.350Z,0
2017-01-12T01:08:15.460Z,0
2017-01-12T01:09:15.489Z,0
2017-01-12T01:10:15.669Z,0
2017-01-12T01:11:15.362Z,0
2017-01-12T01:12:15.523Z,0
2017-01-12T01:13:15.315Z,0
2017-01-12T01:14:15.703Z,0
2017-01-12T01:15:15.404Z,0
2017-01-12T01:16:15.707Z,0
2017-01-12T01:17:15.776Z,0
2017-01-12T01:18:15.985Z,0
2017-01-12T01:19:15.477Z,0
2017-01-12T01:20:15.763Z,0
2017-01-12T01:21:15.423Z,0
2017-01-12T01:22:15.653Z,0
2017-01-12T01:23:15.544Z,0
2017-01-12T01:24:15.552Z,0
2017-01-12T01:25:15.478Z,0
2017-01-12T01:26:15.759Z,0
2017-01-12T01:27:15.584Z,0
2017-01-12T01:28:17.898Z,0
2017-01-12T01:29:15.694Z,0
2017-01-12T01:30:15.388Z,0
2017-01-12T01:31:15.573Z,0
2017-01-12T01:32:15.600Z,0
2017-01-12T01:33:15.391Z,0
2017-01-12T01:34:15.540Z,0
2017-01-12T01:35:17.521Z,0
2017-01-12T01:36:15.884Z,0
2017-01-12T01:37:15.674Z,0
2017-01-12T01:38:15.887Z,0
2017-01-12T01:39:15.575Z,0
2017-01-12T01:40:15.469Z,0
2017-01-12T01:41:15.760Z,0
2017-01-12T01:42:19.105Z,0
2017-01-12T01:43:15.501Z,0
2017-01-12T01:44:15.651Z,0
2017-01-12T01:45:15.636Z,0
2017-01-12T01:46:15.566Z,0
2017-01-12T01:47:15.752Z,0
2017-01-12T01:48:15.846Z,0
2017-01-12T01:49:17.682Z,0
2017-01-12T01:50:15.541Z,0
2017-01-12T01:51:15.765Z,0
2017-01-12T01:52:16.105Z,0
2017-01-12T01:53:15.742Z,0
2017-01-12T01:54:15.681Z,0
2017-01-12T01:55:15.518Z,0
2017-01-12T01:56:15.749Z,0
2017-01-12T01:57:15.687Z,0
2017-01-12T01:58:15.704Z,0
2017-01-12T01:59:15.624Z,0
2017-01-12T02:00:15.713Z,0
2017-01-12T02:01:15.423Z,0
2017-01-12T02:02:16.059Z,0
2017-01-12T02:03:16.055Z,0
2017-01-12T02:04:15.475Z,0
2017-01-12T02:05:15.498Z,0
2017-01-12T02:06:15.542Z,0
2017-01-12T02:07:15.693Z,0
2017-01-12T02:08:15.836Z,0
2017-01-12T02:09:15.802Z,0
2017-01-12T02:10:15.640Z,0
2017-01-12T02:11:15.671Z,0
2017-01-12T02:12:15.671Z,0
2017-01-12T02:13:15.584Z,0
2017-01-12T02:14:15.865Z,0
2017-01-12T02:15:15.562Z,0
2017-01-12T02:16:15.545Z,0
2017-01-12T02:17:16.722Z,0
2017-01-12T02:18:15.683Z,0
2017-01-12T02:19:15.559Z,0
2017-01-12T02:20:16.005Z,0
2017-01-12T02:21:16.532Z,0
2017-01-12T02:22:15.960Z,0
2017-01-12T02:23:15.704Z,0
2017-01-12T02:24:16.231Z,0
2017-01-12T02:25:15.474Z,0
2017-01-12T02:26:15.719Z,0
2017-01-12T02:27:15.712Z,0
2017-01-12T02:28:15.684Z,0
2017-01-12T02:29:15.689Z,0
2017-01-12T02:30:15.693Z,0
2017-01-12T02:31:17.013Z,0
2017-01-12T02:32:15.568Z,0
2017-01-12T02:33:15.442Z,0
2017-01-12T02:34:15.328Z,0
2017-01-12T02:35:15.402Z,0
2017-01-12T02:36:15.750Z,0
2017-01-12T02:37:15.624Z,0
2017-01-12T02:38:15.731Z,0
2017-01-12T02:39:15.576Z,0
2017-01-12T02:40:15.783Z,0
2017-01-12T02:41:15.378Z,0
2017-01-12T02:42:15.565Z,0
2017-01-12T02:43:15.559Z,0
2017-01-12T02:44:15.532Z,0
2017-01-12T02:45:15.733Z,0
2017-01-12T02:46:15.716Z,0
2017-01-12T02:47:15.622Z,0
2017-01-12T02:48:15.692Z,0
2017-01-12T02:49:15.426Z,0
2017-01-12T02:50:15.488Z,0
2017-01-12T02:51:15.462Z,0
2017-01-12T02:52:15.727Z,0
2017-01-12T02:53:15.600Z,0
2017-01-12T02:54:15.737Z,0
2017-01-12T02:55:15.627Z,0
2017-01-12T02:56:15.511Z,0
2017-01-12T02:57:15.454Z,0
2017-01-12T02:58:15.612Z,0
2017-01-12T02:59:15.530Z,0
2017-01-12T03:00:15.796Z,0
2017-01-12T03:01:15.586Z,0
2017-01-12T03:02:15.547Z,0
2017-01-12T03:03:15.535Z,0
2017-01-12T03:04:15.475Z,0
2017-01-12T03:05:15.594Z,0
2017-01-12T03:06:16.000Z,0
2017-01-12T03:07:15.487Z,0
2017-01-12T03:08:15.670Z,0
2017-01-12T03:09:15.502Z,0
2017-01-12T03:10:15.593Z,0
2017-01-12T03:11:15.685Z,0
2017-01-12T03:12:15.671Z,0
2017-01-12T03:13:15.547Z,0
2017-01-12T03:14:15.733Z,0
2017-01-12T03:15:15.890Z,0
2017-01-12T03:16:15.679Z,0
2017-01-12T03:17:15.551Z,0
2017-01-12T03:18:16.024Z,0
2017-01-12T03:19:15.603Z,0
2017-01-12T03:20:15.789Z,0
2017-01-12T03:21:15.750Z,0
2017-01-12T03:22:15.600Z,0
2017-01-12T03:23:15.579Z,0
2017-01-12T03:24:15.586Z,0
2017-01-12T03:25:15.452Z,0
2017-01-12T03:26:15.735Z,0
2017-01-12T03:27:15.460Z,0
2017-01-12T03:28:15.584Z,0
2017-01-12T03:29:15.594Z,0
2017-01-12T03:30:15.710Z,0
2017-01-12T03:31:15.788Z,0
2017-01-12T03:32:15.582Z,0
2017-01-12T03:33:15.418Z,0
2017-01-12T03:34:15.689Z,0
2017-01-12T03:35:15.502Z,0
2017-01-12T03:36:15.683Z,0
2017-01-12T03:37:15.865Z,0
2017-01-12T03:38:15.728Z,0
2017-01-12T03:39:16.963Z,0
2017-01-12T03:40:15.605Z,0
2017-01-12T03:41:15.479Z,0
2017-01-12T03:42:15.721Z,0
2017-01-12T03:43:15.459Z,0
2017-01-12T03:44:15.675Z,0
2017-01-12T03:45:15.590Z,0
2017-01-12T03:46:15.725Z,0
2017-01-12T03:47:15.627Z,0
2017-01-12T03:48:15.666Z,0
2017-01-12T03:49:15.616Z,0
2017-01-12T03:50:15.778Z,0
2017-01-12T03:51:15.447Z,0
2017-01-12T03:52:15.637Z,0
2017-01-12T03:53:15.678Z,0
2017-01-12T03:54:15.635Z,0
2017-01-12T03:55:15.744Z,0
2017-01-12T03:56:15.699Z,0
2017-01-12T03:57:15.615Z,0
2017-01-12T03:58:15.872Z,0
2017-01-12T03:59:15.583Z,0
2017-01-12T04:00:15.468Z,0
2017-01-12T04:01:15.719Z,0
2017-01-12T04:02:15.719Z,0
2017-01-12T04:03:15.612Z,0
2017-01-12T04:04:16.366Z,0
2017-01-12T04:05:15.880Z,0
2017-01-12T04:06:15.619Z,0
2017-01-12T04:07:15.539Z,0
2017-01-12T04:08:15.890Z,0
2017-01-12T04:09:15.497Z,0
2017-01-12T04:10:15.689Z,0
2017-01-12T04:11:15.767Z,0
2017-01-12T04:12:15.590Z,0
2017-01-12T04:13:15.728Z,0
2017-01-12T04:14:15.734Z,0
2017-01-12T04:15:15.714Z,0
2017-01-12T04:16:16.179Z,0
2017-01-12T04:17:15.565Z,0
2017-01-12T04:18:15.728Z,0
2017-01-12T04:19:15.709Z,0
2017-01-12T04:20:15.857Z,0
2017-01-12T04:21:15.839Z,0
2017-01-12T04:22:15.769Z,0
2017-01-12T04:23:15.608Z,0
2017-01-12T04:24:15.730Z,0
2017-01-12T04:25:15.655Z,0
2017-01-12T04:26:15.925Z,0
2017-01-12T04:27:15.864Z,0
2017-01-12T04:28:15.671Z,0
2017-01-12T04:29:15.717Z,0
2017-01-12T04:30:15.858Z,0
2017-01-12T04:31:15.609Z,0
2017-01-12T04:32:15.686Z,0
2017-01-12T04:33:15.601Z,0
2017-01-12T04:34:15.725Z,0
2017-01-12T04:35:15.622Z,0
2017-01-12T04:36:15.765Z,0
2017-01-12T04:37:15.590Z,0
2017-01-12T04:38:15.789Z,0
2017-01-12T04:39:15.681Z,0
2017-01-12T04:40:15.785Z,0
2017-01-12T04:41:15.763Z,0
2017-01-12T04:42:15.880Z,0
2017-01-12T04:43:15.522Z,0
2017-01-12T04:44:15.571Z,0
2017-01-12T04:45:15.630Z,0
2017-01-12T04:46:15.945Z,0
2017-01-12T04:47:15.715Z,0
2017-01-12T04:48:15.780Z,0
2017-01-12T04:49:15.685Z,0
2017-01-12T04:50:15.649Z,0
2017-01-12T04:51:15.786Z,0
2017-01-12T04:52:18.079Z,0
2017-01-12T04:53:15.593Z,0
2017-01-12T04:54:15.760Z,0
2017-01-12T04:55:16.283Z,0
2017-01-12T04:56:15.625Z,0
2017-01-12T04:57:15.613Z,0
2017-01-12T04:58:15.779Z,0
2017-01-12T04:59:15.688Z,0
2017-01-12T05:00:15.735Z,0
2017-01-12T05:01:15.685Z,0
2017-01-12T05:02:15.826Z,0
2017-01-12T05:03:15.977Z,0
2017-01-12T05:04:15.838Z,0
2017-01-12T05:05:15.766Z,0
2017-01-12T05:06:15.849Z,0
2017-01-12T05:07:17.271Z,0
2017-01-12T05:08:15.806Z,0
2017-01-12T05:09:15.736Z,0
2017-01-12T05:14:32.762Z,0
2017-01-12T05:14:44.609Z,0
2017-01-12T05:15:44.786Z,0
2017-01-12T05:16:45.001Z,0
2017-01-12T05:17:44.710Z,0
2017-01-12T05:18:44.879Z,0
2017-01-12T05:19:44.662Z,0
2017-01-12T05:20:44.716Z,0
2017-01-12T05:21:44.584Z,0
2017-01-12T05:22:44.682Z,0
2017-01-12T05:23:44.799Z,0
2017-01-12T05:24:44.762Z,0
2017-01-12T05:25:44.716Z,0
2017-01-12T05:26:44.673Z,0
2017-01-12T05:27:44.779Z,0
2017-01-12T05:28:44.563Z,0
2017-01-12T05:29:44.723Z,0
2017-01-12T05:30:44.820Z,0
2017-01-12T05:31:44.868Z,0
2017-01-12T05:32:45.626Z,0
2017-01-12T05:33:44.756Z,0
2017-01-12T05:34:44.846Z,0
2017-01-12T05:35:44.656Z,0
2017-01-12T05:36:44.683Z,0
2017-01-12T05:37:44.698Z,0
2017-01-12T05:38:44.854Z,0
2017-01-12T05:39:44.835Z,0
2017-01-12T05:40:45.309Z,0
2017-01-12T05:41:44.826Z,0
2017-01-12T05:42:44.749Z,0
2017-01-12T05:43:44.777Z,0
2017-01-12T05:44:44.864Z,0
2017-01-12T05:45:44.828Z,0
2017-01-12T05:46:44.743Z,0
2017-01-12T05:47:44.871Z,0
2017-01-12T05:48:44.882Z,0
2017-01-12T05:49:45.260Z,0
2017-01-12T05:50:44.692Z,0
2017-01-12T05:51:44.846Z,0
2017-01-12T05:52:45.012Z,0
2017-01-12T05:53:44.742Z,0
2017-01-12T05:54:44.791Z,0
2017-01-12T05:55:44.761Z,0
2017-01-12T05:56:44.573Z,0
2017-01-12T05:57:44.898Z,0
2017-01-12T05:58:44.724Z,0
2017-01-12T05:59:44.762Z,0
2017-01-12T06:00:45.071Z,0
2017-01-12T06:01:44.839Z,0
2017-01-12T06:02:44.726Z,0
2017-01-12T06:03:44.929Z,0
2017-01-12T06:04:45.380Z,0
2017-01-12T06:05:44.648Z,0
2017-01-12T06:06:44.782Z,0
2017-01-12T06:07:44.866Z,0
2017-01-12T06:08:45.340Z,0
2017-01-12T06:09:44.849Z,0
2017-01-12T06:10:44.922Z,0
2017-01-12T06:11:44.848Z,0
2017-01-12T06:12:44.918Z,0
2017-01-12T06:13:44.870Z,0
2017-01-12T06:14:44.922Z,0
2017-01-12T06:15:45.676Z,0
2017-01-12T06:16:45.123Z,0
2017-01-12T06:17:44.921Z,0
2017-01-12T06:18:45.111Z,0
2017-01-12T06:19:45.041Z,0
2017-01-12T06:20:45.061Z,0
2017-01-12T06:21:44.888Z,0
2017-01-12T06:22:47.687Z,0
2017-01-12T06:23:44.926Z,0
2017-01-12T06:24:44.923Z,0
2017-01-12T06:25:45.741Z,0
2017-01-12T06:26:44.904Z,0
2017-01-12T06:27:44.927Z,0
2017-01-12T06:28:45.068Z,0
2017-01-12T06:29:45.408Z,0
2017-01-12T06:30:45.028Z,0
2017-01-12T06:31:44.889Z,0
2017-01-12T06:32:44.934Z,0
2017-01-12T06:33:44.857Z,0
2017-01-12T06:34:44.864Z,0
2017-01-12T06:35:44.761Z,0
2017-01-12T06:36:44.964Z,0
2017-01-12T06:37:44.738Z,0
2017-01-12T06:38:44.823Z,0
2017-01-12T06:39:44.886Z,0
2017-01-12T06:40:45.056Z,0
2017-01-12T06:41:44.894Z,0
2017-01-12T06:42:45.001Z,0
2017-01-12T06:43:44.777Z,0
2017-01-12T06:44:45.009Z,0
2017-01-12T06:45:44.895Z,0
2017-01-12T06:46:44.895Z,0
2017-01-12T06:47:44.928Z,0
2017-01-12T06:48:45.114Z,0
2017-01-12T06:49:46.533Z,0
2017-01-12T06:50:45.161Z,0
2017-01-12T06:51:44.857Z,0
2017-01-12T06:52:44.965Z,0
2017-01-12T06:53:44.931Z,0
2017-01-12T06:54:45.232Z,0
2017-01-12T06:55:44.783Z,0
2017-01-12T06:56:44.995Z,0
2017-01-12T06:57:44.994Z,0
2017-01-12T06:58:45.019Z,4
2017-01-12T06:59:44.999Z,4
2017-01-12T07:00:45.479Z,0
2017-01-12T07:01:44.895Z,4
2017-01-12T07:02:44.847Z,4
2017-01-12T07:03:44.845Z,4
2017-01-12T07:04:46.356Z,8
2017-01-12T07:05:44.835Z,8
2017-01-12T07:06:45.103Z,8
2017-01-12T07:07:44.788Z,8
2017-01-12T07:08:44.941Z,12
2017-01-12T07:09:44.902Z,16
2017-01-12T07:10:44.977Z,12
2017-01-12T07:11:44.871Z,16
2017-01-12T07:12:45.827Z,20
2017-01-12T07:13:44.811Z,24
2017-01-12T07:14:45.050Z,24
2017-01-12T07:15:44.931Z,32
2017-01-12T07:16:44.984Z,32
2017-01-12T07:17:45.008Z,36
2017-01-12T07:18:44.842Z,40
2017-01-12T07:19:44.869Z,44
2017-01-12T07:20:46.443Z,44
2017-01-12T07:21:44.980Z,52
2017-01-12T07:22:45.119Z,56
2017-01-12T07:23:44.789Z,56
2017-01-12T07:24:44.949Z,60
2017-01-12T07:25:44.900Z,64
2017-01-12T07:26:44.842Z,68
2017-01-12T07:27:44.718Z,76
2017-01-12T07:28:44.936Z,84
2017-01-12T07:29:44.912Z,92
2017-01-12T07:30:44.721Z,104
2017-01-12T07:31:44.950Z,108
2017-01-12T07:32:47.073Z,120
2017-01-12T07:33:44.927Z,136
2017-01-12T07:34:45.069Z,152
2017-01-12T07:35:44.869Z,156
2017-01-12T07:36:44.811Z,164
2017-01-12T07:37:44.899Z,180
2017-01-12T07:38:44.925Z,196
2017-01-12T07:39:44.982Z,216
2017-01-12T07:40:44.855Z,236
2017-01-12T07:41:44.909Z,260
2017-01-12T07:42:45.437Z,292
2017-01-12T07:43:45.056Z,320
2017-01-12T07:44:45.615Z,340
2017-01-12T07:45:44.939Z,360
2017-01-12T07:46:44.962Z,376
2017-01-12T07:47:45.093Z,376
2017-01-12T07:48:44.949Z,372
2017-01-12T07:49:44.837Z,372
2017-01-12T07:50:45.039Z,364
2017-01-12T07:51:45.025Z,376
2017-01-12T07:52:44.938Z,396
2017-01-12T07:53:44.909Z,416
2017-01-12T07:54:45.185Z,436
2017-01-12T07:55:45.104Z,468
2017-01-12T07:56:45.189Z,512
2017-01-12T07:57:44.928Z,576
2017-01-12T07:58:44.875Z,640
2017-01-12T07:59:44.909Z,696
2017-01-12T08:00:45.409Z,724
2017-01-12T08:01:45.356Z,780
2017-01-12T08:02:45.142Z,864
2017-01-12T08:03:45.211Z,920
2017-01-12T08:04:45.151Z,928
2017-01-12T08:05:44.974Z,900
2017-01-12T08:06:45.220Z,872
2017-01-12T08:07:45.111Z,824
2017-01-12T08:08:45.478Z,840
2017-01-12T08:09:45.050Z,888
2017-01-12T08:10:45.226Z,940
2017-01-12T08:11:44.908Z,988
2017-01-12T08:12:44.880Z,1048
2017-01-12T08:13:44.934Z,1104
2017-01-12T08:14:45.170Z,1128
2017-01-12T08:15:45.306Z,1144
2017-01-12T08:16:45.052Z,1184
2017-01-12T08:17:45.249Z,1232
2017-01-12T08:18:45.084Z,1260
2017-01-12T08:19:45.107Z,1296
2017-01-12T08:20:45.040Z,1328
2017-01-12T08:21:45.001Z,1388
2017-01-12T08:22:45.798Z,1436
2017-01-12T08:23:44.966Z,1484
2017-01-12T08:24:45.619Z,1464
2017-01-12T08:25:45.124Z,1520
2017-01-12T08:26:45.317Z,1612
2017-01-12T08:27:45.316Z,1636
2017-01-12T08:28:45.262Z,1696
2017-01-12T08:29:45.131Z,1780
2017-01-12T08:30:45.028Z,1916
2017-01-12T08:31:44.830Z,2104
2017-01-12T08:32:45.403Z,2256
2017-01-12T08:33:45.121Z,2332
2017-01-12T08:34:45.018Z,2364
2017-01-12T08:35:45.237Z,2384
2017-01-12T08:36:44.999Z,2396
2017-01-12T08:37:45.057Z,2408
2017-01-12T08:38:45.187Z,2412
2017-01-12T08:39:44.946Z,2480
2017-01-12T08:40:45.242Z,2644
2017-01-12T08:41:44.989Z,2784
2017-01-12T08:42:46.385Z,2904
2017-01-12T08:43:45.045Z,3116
2017-01-12T08:44:45.175Z,3328
2017-01-12T08:45:44.952Z,3436
2017-01-12T08:46:45.257Z,3568
2017-01-12T08:47:44.986Z,3544
2017-01-12T08:48:45.289Z,3636
2017-01-12T08:49:45.207Z,3632
2017-01-12T08:50:45.110Z,3700
2017-01-12T08:51:45.397Z,3796
2017-01-12T08:52:45.218Z,3932
2017-01-12T08:53:45.259Z,4220
2017-01-12T08:54:45.337Z,4524
2017-01-12T08:55:45.201Z,4748
2017-01-12T08:56:45.390Z,4796
2017-01-12T08:57:45.128Z,4796
2017-01-12T08:58:45.817Z,4884
2017-01-12T08:59:45.071Z,4980
2017-01-12T09:00:46.595Z,5008
2017-01-12T09:01:45.284Z,5004
2017-01-12T09:02:45.368Z,4968
2017-01-12T09:03:45.100Z,4888
2017-01-12T09:04:45.564Z,4704
2017-01-12T09:05:44.999Z,4588
2017-01-12T09:06:45.290Z,4660
2017-01-12T09:07:45.118Z,4708
2017-01-12T09:08:45.259Z,4704
2017-01-12T09:09:45.146Z,4696
2017-01-12T09:10:45.369Z,4652
2017-01-12T09:11:45.216Z,4576
2017-01-12T09:12:45.170Z,4476
2017-01-12T09:13:45.250Z,4332
2017-01-12T09:14:45.301Z,4268
2017-01-12T09:15:45.149Z,4252
2017-01-12T09:16:55.109Z,4240
2017-01-12T09:17:44.963Z,4256
2017-01-12T09:18:47.114Z,4308
2017-01-12T09:19:45.250Z,4392
2017-01-12T09:20:45.132Z,4544
2017-01-12T09:21:45.555Z,4688
2017-01-12T09:22:45.338Z,4784
2017-01-12T09:23:45.268Z,4780
2017-01-12T09:24:45.147Z,4728
2017-01-12T09:25:45.099Z,4648
2017-01-12T09:26:45.140Z,4584
2017-01-12T09:27:45.136Z,4552
2017-01-12T09:28:45.394Z,4556
2017-01-12T09:29:45.184Z,4532
2017-01-12T09:30:45.263Z,4532
2017-01-12T09:31:45.725Z,4560
2017-01-12T09:32:45.270Z,4604
2017-01-12T09:33:45.196Z,4804
2017-01-12T09:34:45.518Z,4968
2017-01-12T09:35:45.112Z,5028
2017-01-12T09:36:45.235Z,5156
2017-01-12T09:37:45.651Z,5364
2017-01-12T09:38:45.421Z,5584
2017-01-12T09:39:45.274Z,5900
2017-01-12T09:40:45.216Z,6456
2017-01-12T09:41:45.138Z,5620
2017-01-12T09:42:45.575Z,5088
2017-01-12T09:43:45.349Z,5596
2017-01-12T09:44:45.564Z,6020
2017-01-12T09:45:45.235Z,6436
2017-01-12T09:46:45.400Z,6560
2017-01-12T09:47:45.124Z,7256
2017-01-12T09:48:45.366Z,7376
2017-01-12T09:49:45.055Z,7764
2017-01-12T09:50:45.148Z,8420
2017-01-12T09:51:44.979Z,9112
2017-01-12T09:52:45.156Z,9300
2017-01-12T09:53:45.196Z,9156
2017-01-12T09:54:45.370Z,8612
2017-01-12T09:55:45.203Z,8344
2017-01-12T09:56:45.296Z,8028
2017-01-12T09:57:45.152Z,7552
2017-01-12T09:58:45.578Z,7256
2017-01-12T09:59:45.176Z,7008
2017-01-12T10:00:45.540Z,6904
2017-01-12T10:01:45.419Z,6812
2017-01-12T10:02:45.144Z,6628
2017-01-12T10:03:45.096Z,6656
2017-01-12T10:04:45.121Z,6852
2017-01-12T10:05:45.116Z,7056
2017-01-12T10:06:45.309Z,7228
2017-01-12T10:07:45.128Z,7216
2017-01-12T10:08:45.292Z,7252
2017-01-12T10:09:45.169Z,7572
2017-01-12T10:10:45.422Z,7712
2017-01-12T10:11:45.335Z,7664
2017-01-12T10:12:45.249Z,7732
2017-01-12T10:13:45.089Z,7788
2017-01-12T10:14:45.408Z,7444
2017-01-12T10:15:45.063Z,7060
2017-01-12T10:16:45.275Z,6856
2017-01-12T10:17:45.357Z,6736
2017-01-12T10:18:45.705Z,6804
2017-01-12T10:19:45.308Z,6968
2017-01-12T10:20:46.426Z,7148
2017-01-12T10:21:45.205Z,7372
2017-01-12T10:22:45.520Z,7400
2017-01-12T10:23:45.523Z,7452
2017-01-12T10:24:45.244Z,7540
2017-01-12T10:25:45.010Z,7572
2017-01-12T10:26:45.264Z,7480
2017-01-12T10:27:45.179Z,7376
2017-01-12T10:28:45.326Z,7172
2017-01-12T10:29:45.226Z,6968
2017-01-12T10:30:45.359Z,6944
2017-01-12T10:31:45.134Z,7032
2017-01-12T10:32:45.582Z,7268
2017-01-12T10:33:45.454Z,7448
2017-01-12T10:34:45.737Z,7760
2017-01-12T10:35:45.791Z,7872
2017-01-12T10:36:45.503Z,7516
2017-01-12T10:37:45.230Z,8204
2017-01-12T10:38:45.272Z,8080
2017-01-12T10:39:45.125Z,7956
2017-01-12T10:40:45.333Z,8096
2017-01-12T10:41:45.132Z,7860
2017-01-12T10:42:45.341Z,7592
2017-01-12T10:43:45.243Z,7068
2017-01-12T10:44:45.516Z,6604
2017-01-12T10:45:45.531Z,6424
2017-01-12T10:46:45.687Z,6632
2017-01-12T10:47:45.842Z,6876
2017-01-12T10:48:45.518Z,7012
2017-01-12T10:49:45.656Z,7176
2017-01-12T10:50:45.335Z,7424
2017-01-12T10:51:45.185Z,7776
2017-01-12T10:52:45.247Z,7576
2017-01-12T10:53:45.281Z,7448
2017-01-12T10:54:45.294Z,7760
2017-01-12T10:55:45.510Z,7792
2017-01-12T10:56:45.177Z,7952
2017-01-12T10:57:45.160Z,8052
2017-01-12T10:58:45.397Z,7656
2017-01-12T10:59:45.414Z,7436
2017-01-12T11:00:45.752Z,7508
2017-01-12T11:01:45.350Z,7712
2017-01-12T11:02:45.604Z,8616
2017-01-12T11:03:45.406Z,9332
2017-01-12T11:04:45.433Z,9996
2017-01-12T11:05:46.246Z,9888
2017-01-12T11:06:46.958Z,8968
2017-01-12T11:07:45.645Z,8496
2017-01-12T11:08:45.671Z,8660
2017-01-12T11:09:45.664Z,8744
2017-01-12T11:10:45.778Z,8392
2017-01-12T11:11:45.837Z,8560
2017-01-12T11:12:45.669Z,8836
2017-01-12T11:13:45.807Z,8756
2017-01-12T11:14:45.522Z,8944
2017-01-12T11:15:45.287Z,9056
2017-01-12T11:16:45.211Z,9068
2017-01-12T11:17:45.180Z,9168
2017-01-12T11:18:45.367Z,9124
2017-01-12T11:19:45.969Z,8868
2017-01-12T11:20:45.715Z,8824
2017-01-12T11:21:45.426Z,9328
2017-01-12T11:22:45.465Z,9664
2017-01-12T11:23:45.461Z,9576
2017-01-12T11:24:45.366Z,9432
2017-01-12T11:25:45.441Z,9724
2017-01-12T11:26:45.356Z,10020
2017-01-12T11:27:45.323Z,10372
2017-01-12T11:28:45.371Z,10384
2017-01-12T11:29:45.273Z,10524
2017-01-12T11:30:45.687Z,10640
2017-01-12T11:31:45.242Z,10944
2017-01-12T11:32:45.514Z,10936
2017-01-12T11:33:46.336Z,10872
2017-01-12T11:34:45.424Z,12548
2017-01-12T11:35:45.374Z,11416
2017-01-12T11:36:45.400Z,12364
2017-01-12T11:37:45.403Z,11740
2017-01-12T11:38:45.410Z,10828
2017-01-12T11:39:45.421Z,10140
2017-01-12T11:40:45.621Z,10004
2017-01-12T11:41:45.194Z,9064
2017-01-12T11:42:45.451Z,8952
2017-01-12T11:43:45.335Z,8512
2017-01-12T11:44:45.190Z,9036
2017-01-12T11:45:45.239Z,10132
2017-01-12T11:46:45.499Z,10480
2017-01-12T11:47:45.423Z,11104
2017-01-12T11:48:45.398Z,11440
2017-01-12T11:49:45.505Z,12148
2017-01-12T11:50:45.327Z,11604
2017-01-12T11:51:45.218Z,12076
2017-01-12T11:52:45.587Z,12304
2017-01-12T11:53:45.443Z,12572
2017-01-12T11:54:45.679Z,13208
2017-01-12T11:55:45.273Z,13608
2017-01-12T11:56:45.517Z,13800
2017-01-12T11:57:45.349Z,13772
2017-01-12T11:58:45.793Z,14680
2017-01-12T11:59:45.317Z,14868
2017-01-12T12:00:45.503Z,14688
2017-01-12T12:01:45.579Z,14564
2017-01-12T12:02:45.321Z,14968
2017-01-12T12:03:45.486Z,14008
2017-01-12T12:04:45.837Z,14740
2017-01-12T12:05:45.508Z,14656
2017-01-12T12:06:45.515Z,14132
2017-01-12T12:07:45.384Z,13676
2017-01-12T12:08:48.296Z,13472
2017-01-12T12:09:45.738Z,13428
2017-01-12T12:10:46.119Z,13584
2017-01-12T12:11:46.120Z,13832
2017-01-12T12:12:45.504Z,13416
2017-01-12T12:13:45.586Z,13932
2017-01-12T12:14:48.752Z,13976
2017-01-12T12:15:45.591Z,13588
2017-01-12T12:16:45.341Z,14580
2017-01-12T12:17:45.553Z,14460
2017-01-12T12:18:45.356Z,13460
2017-01-12T12:19:45.551Z,13788
2017-01-12T12:20:45.649Z,14108
2017-01-12T12:21:45.183Z,13976
2017-01-12T12:22:45.259Z,13884
2017-01-12T12:23:45.345Z,12288
2017-01-12T12:24:45.372Z,12156
2017-01-12T12:25:45.302Z,11240
2017-01-12T12:26:45.216Z,11812
2017-01-12T12:27:45.249Z,10792
2017-01-12T12:28:45.278Z,10308
2017-01-12T12:29:45.353Z,10324
2017-01-12T12:30:45.296Z,9440
2017-01-12T12:31:45.584Z,6992
2017-01-12T12:32:45.420Z,6308
2017-01-12T12:33:45.535Z,7752
2017-01-12T12:34:45.243Z,10308
2017-01-12T12:35:45.284Z,12576
2017-01-12T12:36:45.391Z,13508
2017-01-12T12:37:45.593Z,13416
2017-01-12T12:38:45.366Z,14624
2017-01-12T12:39:45.228Z,15648
2017-01-12T12:40:45.404Z,16800
2017-01-12T12:41:45.757Z,17216
2017-01-12T12:42:45.513Z,17888
2017-01-12T12:43:45.502Z,15904
2017-01-12T12:44:45.407Z,17184
2017-01-12T12:45:45.682Z,14360
2017-01-12T12:46:45.692Z,11340
2017-01-12T12:47:45.782Z,9896
2017-01-12T12:48:45.605Z,10272
2017-01-12T12:49:45.533Z,12160
2017-01-12T12:50:45.666Z,14240
2017-01-12T12:51:45.515Z,13416
2017-01-12T12:52:45.334Z,13668
2017-01-12T12:53:45.549Z,13240
2017-01-12T12:54:45.365Z,11416
2017-01-12T12:55:45.700Z,8296
2017-01-12T12:56:45.778Z,8984
2017-01-12T12:57:45.875Z,9752
2017-01-12T12:58:45.433Z,8424
2017-01-12T12:59:45.427Z,7812
2017-01-12T13:00:45.347Z,8768
2017-01-12T13:01:45.390Z,9652
2017-01-12T13:02:45.411Z,10028
2017-01-12T13:03:45.430Z,11056
2017-01-12T13:04:45.513Z,10068
2017-01-12T13:05:45.752Z,9884
2017-01-12T13:06:45.615Z,9752
2017-01-12T13:07:45.477Z,10636
2017-01-12T13:08:45.707Z,10868
2017-01-12T13:09:45.255Z,10396
2017-01-12T13:10:45.628Z,10156
2017-01-12T13:11:46.163Z,9856
2017-01-12T13:12:45.493Z,9800
2017-01-12T13:13:45.345Z,10812
2017-01-12T13:14:45.386Z,11820
2017-01-12T13:15:45.547Z,12536
2017-01-12T13:16:45.408Z,11620
2017-01-12T13:17:45.061Z,10908
2017-01-12T13:18:45.171Z,10360
2017-01-12T13:26:00.462Z,9408
2017-01-12T13:26:56.892Z,9340
2017-01-12T13:27:56.884Z,9604
2017-01-12T13:28:56.933Z,9088
2017-01-12T13:29:56.962Z,8484
2017-01-12T13:30:56.855Z,8064
2017-01-12T13:31:56.868Z,7760
2017-01-12T13:32:56.947Z,7724
2017-01-12T13:33:56.898Z,7920
2017-01-12T13:34:56.844Z,8244
2017-01-12T13:35:56.931Z,8380
2017-01-12T13:36:57.080Z,8020
2017-01-12T13:37:56.869Z,7896
2017-01-12T13:38:56.827Z,7760
2017-01-12T13:39:56.907Z,7356
2017-01-12T13:40:56.997Z,6964
2017-01-12T13:41:56.876Z,6384
2017-01-12T13:42:57.332Z,5860
2017-01-12T13:43:57.064Z,5636
2017-01-12T13:44:58.109Z,5548
2017-01-12T13:45:56.875Z,5528
2017-01-12T13:46:56.928Z,5376
2017-01-12T13:47:56.923Z,5192
2017-01-12T13:48:56.938Z,4996
2017-01-12T13:49:56.807Z,5160
2017-01-12T13:50:57.039Z,5216
2017-01-12T13:51:56.935Z,5004
2017-01-12T13:52:57.056Z,4812
2017-01-12T13:54:08.686Z,4680
2017-01-12T13:54:56.994Z,4700
2017-01-12T13:55:56.887Z,4748
2017-01-12T13:56:56.841Z,4856
2017-01-12T13:57:57.337Z,5000
2017-01-12T13:58:56.843Z,5004
2017-01-12T13:59:56.840Z,4916
2017-01-12T14:00:57.089Z,4776
2017-01-12T14:01:56.905Z,4756
2017-01-12T14:02:57.151Z,4892
2017-01-12T14:03:56.975Z,4916
2017-01-12T14:04:56.882Z,4844
2017-01-12T14:05:56.850Z,4732
2017-01-12T14:06:57.201Z,4648
2017-01-12T14:07:56.813Z,4612
2017-01-12T14:08:56.873Z,4636
2017-01-12T14:09:57.121Z,4628